Terminal Aerodrome Forecast
Issued by NWS Jacksonville, FL

Home | Current Version | Previous Version | Text Only | Print | Product List | Glossary On
Versions: 1 2 3 4 5 6 7 8 9 10 11 12 13 14 15 16 17 18 19 20 21 22 23 24 25 26 27 28 29 30
000
FTUS42 KJAX 240520
TAFGNV
TAF
KGNV 240520Z 2406/2506 VRB03KT P6SM SCT060 BKN250
      TEMPO 2409/2412 4SM BR
     FM241400 26008KT P6SM SCT040 SCT250
     FM250100 25004KT P6SM SCT050 SCT250=

USA.gov is the U.S. government's official web portal to all federal, state and local government web resources and services.